Time;durP1;ratioP1;P1;durP2;ratioP2;P2;SDS_P1;SDS_P2;PMS_P1;PMS_P2;Temp;Humidity;BMP_temperature;BMP_pressure;BME280_temperature;BME280_humidity;BME280_pressure;Samples;Min_cycle;Max_cycle;Signal;HPM_P1;HPM_P2
2020/12/28 00:01:51;;;;;;;;;;;;;;;19.21;65.56;100199.34;5035029;28;1500;-59
2020/12/28 00:04:17;;;;;;;;;;;;;;;19.18;65.51;100221.09;5053771;28;1898;-61
2020/12/28 00:06:46;;;;;;;;;;;;;;;19.17;65.17;100212.22;5053611;28;766;-60
2020/12/28 00:09:11;;;;;;;;;;;;;;;19.19;65.16;100220.09;5054565;28;849;-60
2020/12/28 00:11:36;;;;;;;;;;;;;;;19.20;64.93;100221.78;5054362;28;820;-58
2020/12/28 00:14:02;;;;;;;;;;;;;;;19.16;64.70;100199.81;5054423;28;1453;-61
2020/12/28 00:16:27;;;;;;;;;;;;;;;19.20;64.66;100200.34;5054083;28;1489;-59
2020/12/28 00:18:53;;;;;;;;;;;;;;;19.21;64.66;100231.53;5054333;28;843;-59
2020/12/28 00:21:18;;;;;;;;;;;;;;;19.23;64.33;100229.53;5054264;28;829;-60
2020/12/28 00:23:43;;;;;;;;;;;;;;;19.19;64.09;100204.03;5054515;28;779;-60
2020/12/28 00:26:09;;;;;;;;;;;;;;;19.16;64.04;100213.22;5054489;28;1859;-60
2020/12/28 00:28:34;;;;;;;;;;;;;;;19.19;64.07;100204.03;5054441;28;1325;-58
2020/12/28 00:30:59;;;;;;;;;;;;;;;19.17;63.75;100211.38;5054176;28;1228;-59
2020/12/28 00:33:25;;;;;;;;;;;;;;;19.17;63.70;100197.97;5054063;28;1418;-59
2020/12/28 00:35:50;;;;;;;;;;;;;;;19.18;63.48;100203.19;5054231;28;1457;-58
2020/12/28 00:38:15;;;;;;;;;;;;;;;19.16;63.60;100194.47;5055198;28;1445;-60
2020/12/28 00:40:41;;;;;;;;;;;;;;;19.19;63.42;100204.84;5074123;28;854;-58
2020/12/28 00:43:06;;;;;;;;;;;;;;;19.15;63.32;100183.88;5060857;28;1662;-60
2020/12/28 00:45:31;;;;;;;;;;;;;;;19.18;62.99;100202.31;5053849;28;1971;-60
2020/12/28 00:47:57;;;;;;;;;;;;;;;19.15;62.84;100197.28;5053817;28;880;-59
2020/12/28 00:50:22;;;;;;;;;;;;;;;19.12;63.20;100202.94;5054262;28;863;-59
2020/12/28 00:52:47;;;;;;;;;;;;;;;19.15;62.75;100175.84;5054238;28;766;-58
2020/12/28 00:55:13;;;;;;;;;;;;;;;19.15;63.19;100175.84;5055897;28;1525;-59
2020/12/28 00:57:38;;;;;;;;;;;;;;;19.12;62.78;100158.22;5055134;28;1298;-58
2020/12/28 01:00:04;;;;;;;;;;;;;;;19.12;62.73;100160.91;5057334;28;1266;-59
2020/12/28 01:02:30;;;;;;;;;;;;;;;19.11;62.87;100163.75;5057281;28;1211;-59
2020/12/28 01:04:55;;;;;;;;;;;;;;;19.11;62.63;100151.16;5057058;28;1905;-58
2020/12/28 01:07:20;;;;;;;;;;;;;;;19.08;62.72;100149.66;5056978;28;1297;-61
2020/12/28 01:09:46;;;;;;;;;;;;;;;19.10;62.47;100146.81;5057019;28;1397;-58
2020/12/28 01:12:11;;;;;;;;;;;;;;;19.10;62.29;100154.00;5057218;28;1000;-59
2020/12/28 01:14:37;;;;;;;;;;;;;;;19.10;62.22;100162.03;5057513;28;733;-58
2020/12/28 01:17:02;;;;;;;;;;;;;;;19.13;62.30;100153.72;5057552;28;833;-60
2020/12/28 01:19:27;;;;;;;;;;;;;;;19.08;62.35;100152.31;5057526;28;825;-60
2020/12/28 01:21:55;;;;;;;;;;;;;;;19.11;62.32;100147.66;5057370;28;805;-59
2020/12/28 01:24:21;;;;;;;;;;;;;;;19.12;62.16;100134.13;5056694;28;1890;-58
2020/12/28 01:26:46;;;;;;;;;;;;;;;19.09;62.08;100129.03;5057232;28;1473;-60
2020/12/28 01:29:12;;;;;;;;;;;;;;;19.05;61.85;100100.88;5057097;28;1448;-60
2020/12/28 01:31:37;;;;;;;;;;;;;;;19.13;61.96;100100.94;5056369;28;1453;-60
2020/12/28 01:34:03;;;;;;;;;;;;;;;19.14;61.60;100118.72;5056674;28;820;-61
2020/12/28 01:36:28;;;;;;;;;;;;;;;19.11;61.51;100099.41;5056753;28;1509;-60
2020/12/28 01:38:53;;;;;;;;;;;;;;;19.16;61.87;100111.38;5056731;28;1283;-59
2020/12/28 01:41:19;;;;;;;;;;;;;;;19.16;61.93;100107.81;5056969;28;812;-60
2020/12/28 01:43:45;;;;;;;;;;;;;;;19.15;61.64;100114.19;5056597;28;828;-59
2020/12/28 01:46:10;;;;;;;;;;;;;;;19.13;61.60;100102.78;5056469;28;1989;-59
2020/12/28 01:48:36;;;;;;;;;;;;;;;19.13;61.59;100100.09;5056541;28;1410;-59
2020/12/28 01:51:01;;;;;;;;;;;;;;;19.17;61.48;100123.75;5056503;28;829;-59
2020/12/28 01:53:27;;;;;;;;;;;;;;;19.15;61.31;100111.50;5056726;28;793;-61
2020/12/28 01:55:55;;;;;;;;;;;;;;;19.12;60.93;100101.09;5056786;28;843;-61
2020/12/28 01:58:21;;;;;;;;;;;;;;;19.12;61.03;100087.69;5056168;28;1375;-60
2020/12/28 02:00:47;;;;;;;;;;;;;;;19.12;61.21;100085.00;5056074;28;1429;-60
2020/12/28 02:03:13;;;;;;;;;;;;;;;19.15;61.18;100084.72;5056447;28;1608;-60
2020/12/28 02:05:38;;;;;;;;;;;;;;;19.11;61.41;100088.69;5056356;28;1893;-58
2020/12/28 02:08:03;;;;;;;;;;;;;;;19.14;61.21;100088.38;5056505;28;828;-61
2020/12/28 02:10:29;;;;;;;;;;;;;;;19.11;60.75;100086.00;5056196;28;895;-61
2020/12/28 02:12:54;;;;;;;;;;;;;;;19.10;60.89;100087.00;5055614;28;1513;-58
2020/12/28 02:15:19;;;;;;;;;;;;;;;19.13;60.92;100092.91;5056221;28;816;-60
2020/12/28 02:17:46;;;;;;;;;;;;;;;19.12;60.66;100068.94;5056034;28;829;-60
2020/12/28 02:20:11;;;;;;;;;;;;;;;19.05;60.81;100074.91;5055603;28;1538;-59
2020/12/28 02:22:39;;;;;;;;;;;;;;;19.10;60.72;100068.25;5056229;28;869;-59
2020/12/28 02:25:04;;;;;;;;;;;;;;;19.08;60.71;100079.13;5056098;28;1953;-59
2020/12/28 02:27:30;;;;;;;;;;;;;;;19.06;60.89;100075.75;5055688;28;1509;-60
2020/12/28 02:29:55;;;;;;;;;;;;;;;19.08;60.50;100085.31;5055728;28;1519;-59
2020/12/28 02:32:20;;;;;;;;;;;;;;;19.04;60.55;100072.41;5055329;28;1429;-61
2020/12/28 02:34:46;;;;;;;;;;;;;;;19.09;60.82;100078.13;5055656;28;862;-61
2020/12/28 02:37:11;;;;;;;;;;;;;;;19.05;60.59;100066.03;5055287;28;1314;-61
2020/12/28 02:39:37;;;;;;;;;;;;;;;19.02;60.62;100061.81;5055485;28;1465;-59
2020/12/28 02:42:02;;;;;;;;;;;;;;;19.04;60.34;100059.84;5055337;28;1473;-58
2020/12/28 02:44:28;;;;;;;;;;;;;;;19.14;60.45;100074.97;5055582;28;1906;-59
2020/12/28 02:46:53;;;;;;;;;;;;;;;19.07;60.53;100062.19;5055793;28;755;-61
2020/12/28 02:49:18;;;;;;;;;;;;;;;19.08;60.06;100058.53;5055429;28;809;-59
2020/12/28 02:51:43;;;;;;;;;;;;;;;19.10;60.11;100057.53;5055200;28;1124;-60
2020/12/28 02:54:09;;;;;;;;;;;;;;;19.08;60.00;100050.50;5054997;28;1520;-59
2020/12/28 02:56:34;;;;;;;;;;;;;;;19.11;60.11;100056.53;5054581;28;1250;-60
2020/12/28 02:58:59;;;;;;;;;;;;;;;19.10;59.84;100058.38;5054610;28;1496;-61
2020/12/28 03:01:25;;;;;;;;;;;;;;;19.08;60.09;100061.22;5073672;23;1993;-49
2020/12/28 03:03:50;;;;;;;;;;;;;;;19.07;59.81;100043.44;5070538;28;1278;-49
2020/12/28 03:06:15;;;;;;;;;;;;;;;19.11;59.91;100032.41;5070411;28;1917;-49
2020/12/28 03:08:40;;;;;;;;;;;;;;;19.11;59.94;100024.38;5070489;28;1344;-49
2020/12/28 03:11:06;;;;;;;;;;;;;;;19.14;60.55;100029.41;5069591;23;3512;-61
2020/12/28 03:13:31;;;;;;;;;;;;;;;19.15;60.55;100012.34;5033338;28;1164;-58
2020/12/28 03:15:56;;;;;;;;;;;;;;;19.13;60.06;100033.09;5035343;28;1353;-61
2020/12/28 03:18:22;;;;;;;;;;;;;;;19.11;59.74;100024.38;5021577;28;1478;-59
2020/12/28 03:20:47;;;;;;;;;;;;;;;19.08;59.96;100017.50;5020918;28;1443;-59
2020/12/28 03:23:12;;;;;;;;;;;;;;;19.07;60.00;100008.59;5027902;28;1451;-58
2020/12/28 03:25:38;;;;;;;;;;;;;;;19.08;59.83;100004.94;5034927;28;1918;-59
2020/12/28 03:28:03;;;;;;;;;;;;;;;19.08;59.49;100010.28;5034980;28;1423;-61
2020/12/28 03:30:29;;;;;;;;;;;;;;;19.13;59.59;100008.97;5034873;28;1576;-59
2020/12/28 03:32:54;;;;;;;;;;;;;;;19.05;59.61;100013.25;5034956;28;801;-60
2020/12/28 03:35:19;;;;;;;;;;;;;;;19.03;59.39;100007.22;5034819;28;880;-61
2020/12/28 03:37:45;;;;;;;;;;;;;;;19.02;59.43;99986.78;5034862;28;829;-60
2020/12/28 03:40:10;;;;;;;;;;;;;;;19.02;59.49;99992.16;5034770;28;1501;-60
2020/12/28 03:42:35;;;;;;;;;;;;;;;19.02;59.35;99989.47;5027522;28;1450;-59
2020/12/28 03:45:01;;;;;;;;;;;;;;;18.93;60.94;99979.66;5034750;28;1890;-58
2020/12/28 03:47:26;;;;;;;;;;;;;;;18.69;63.50;100007.03;5027447;28;1533;-59
2020/12/28 03:49:52;;;;;;;;;;;;;;;18.56;63.86;100003.88;5031156;28;1392;-58
2020/12/28 03:52:17;;;;;;;;;;;;;;;18.48;64.40;99999.28;5034761;28;765;-59
2020/12/28 03:54:45;;;;;;;;;;;;;;;18.43;64.13;99988.19;5031948;28;1355;-61
2020/12/28 03:57:10;;;;;;;;;;;;;;;18.38;64.86;99985.13;5034556;28;895;-61
2020/12/28 03:59:36;;;;;;;;;;;;;;;18.40;64.86;99999.19;5034770;28;766;-58
2020/12/28 04:02:01;;;;;;;;;;;;;;;18.33;64.81;99987.41;5045838;28;1310;-58
2020/12/28 04:04:26;;;;;;;;;;;;;;;18.35;65.05;99985.44;5054414;28;1969;-60
2020/12/28 04:06:52;;;;;;;;;;;;;;;18.34;65.36;99983.72;5054696;28;807;-58
2020/12/28 04:09:17;;;;;;;;;;;;;;;18.34;64.71;99973.03;5053932;28;1327;-59
2020/12/28 04:11:43;;;;;;;;;;;;;;;18.27;65.62;99973.63;5053931;28;1295;-58
2020/12/28 04:14:08;;;;;;;;;;;;;;;18.33;65.99;99977.56;5054463;28;851;-61
2020/12/28 04:16:33;;;;;;;;;;;;;;;18.28;65.87;99967.31;5054531;28;797;-59
2020/12/28 04:18:58;;;;;;;;;;;;;;;18.27;65.43;99968.28;5053197;28;1651;-61
2020/12/28 04:21:24;;;;;;;;;;;;;;;18.32;65.65;99975.00;5054191;28;812;-61
2020/12/28 04:23:49;;;;;;;;;;;;;;;18.29;65.39;99976.16;5054313;28;1466;-59
2020/12/28 04:26:14;;;;;;;;;;;;;;;18.31;65.90;99973.34;5054416;28;1963;-58
2020/12/28 04:28:40;;;;;;;;;;;;;;;18.33;65.73;99982.06;5054359;28;1493;-59
2020/12/28 04:31:09;;;;;;;;;;;;;;;18.28;66.11;99978.00;5058078;28;795;-58
2020/12/28 04:33:35;;;;;;;;;;;;;;;18.29;66.19;99985.03;5058296;28;763;-59
2020/12/28 04:36:00;;;;;;;;;;;;;;;18.26;66.53;99988.03;5058232;28;779;-60
2020/12/28 04:38:25;;;;;;;;;;;;;;;18.26;66.46;99988.03;5058159;28;777;-61
2020/12/28 04:40:51;;;;;;;;;;;;;;;18.28;66.01;100007.44;5057619;28;1487;-60
2020/12/28 04:43:16;;;;;;;;;;;;;;;18.22;65.92;99994.66;5057982;28;1485;-58
2020/12/28 04:45:42;;;;;;;;;;;;;;;18.25;66.79;100002.38;5057879;28;1886;-58
2020/12/28 04:48:08;;;;;;;;;;;;;;;18.24;66.91;99992.69;5057848;28;1469;-58
2020/12/28 04:50:34;;;;;;;;;;;;;;;18.26;66.69;100001.41;5057637;28;1470;-59
2020/12/28 04:52:59;;;;;;;;;;;;;;;18.24;67.07;100000.72;5057985;28;834;-61
2020/12/28 04:55:24;;;;;;;;;;;;;;;18.23;67.22;100006.22;5057712;28;1484;-60
2020/12/28 04:57:50;;;;;;;;;;;;;;;18.24;66.50;100010.56;5057932;28;733;-61
2020/12/28 05:00:16;;;;;;;;;;;;;;;18.20;67.18;100004.66;5057339;28;1509;-61
2020/12/28 05:02:41;;;;;;;;;;;;;;;18.22;66.78;100010.72;5057454;28;1341;-59
2020/12/28 05:05:08;;;;;;;;;;;;;;;18.26;67.18;100013.91;5057071;28;1890;-58
2020/12/28 05:07:33;;;;;;;;;;;;;;;18.19;66.61;100019.03;5057556;28;1473;-60
2020/12/28 05:09:59;;;;;;;;;;;;;;;18.22;67.39;100012.53;5057650;28;788;-61
2020/12/28 05:12:25;;;;;;;;;;;;;;;18.19;66.84;100015.53;5055202;28;1403;-60
2020/12/28 05:14:50;;;;;;;;;;;;;;;18.18;66.55;100027.19;5037164;28;1585;-58
2020/12/28 05:17:15;;;;;;;;;;;;;;;18.24;66.79;100034.63;5037068;28;1637;-58
2020/12/28 05:19:41;;;;;;;;;;;;;;;18.22;67.96;100021.44;5037618;28;777;-58
2020/12/28 05:22:06;;;;;;;;;;;;;;;18.29;69.60;100035.88;5041220;28;1112;-61
2020/12/28 05:24:32;;;;;;;;;;;;;;;18.29;68.13;100038.56;4676618;28;9999762;-61
2020/12/28 05:26:58;;;;;;;;;;;;;;;18.32;67.96;100050.78;5028039;28;1471;-58
2020/12/28 05:29:25;;;;;;;;;;;;;;;18.28;68.42;100039.56;5030220;28;1603;-58
2020/12/28 05:31:51;;;;;;;;;;;;;;;18.22;67.87;100058.91;5027687;28;1495;-59
2020/12/28 05:34:24;;;;;;;;;;;;;;;18.15;68.01;100062.31;5023573;28;1496;-58
2020/12/28 05:36:50;;;;;;;;;;;;;;;18.06;67.63;100058.66;5018531;28;1184;-58
2020/12/28 05:39:16;;;;;;;;;;;;;;;18.02;67.34;100054.59;5032762;28;1539;-61
2020/12/28 05:42:12;;;;;;;;;;;;;;;17.59;65.58;100074.69;5027147;28;1491;-58
2020/12/28 05:44:41;;;;;;;;;;;;;;;17.08;67.14;100074.81;5009780;28;1901;-60
2020/12/28 05:47:13;;;;;;;;;;;;;;;17.17;67.13;100101.69;5024547;28;1513;-58
2020/12/28 05:49:39;;;;;;;;;;;;;;;17.21;66.64;100103.94;5029993;28;1446;-61
2020/12/28 05:52:06;;;;;;;;;;;;;;;17.21;67.81;100095.06;5033332;28;1129;-61
2020/12/28 05:54:31;;;;;;;;;;;;;;;17.10;67.81;100102.22;5034721;28;1488;-60
2020/12/28 05:56:57;;;;;;;;;;;;;;;16.93;66.34;100094.06;5028814;28;1429;-60
2020/12/28 05:59:22;;;;;;;;;;;;;;;16.88;65.17;100095.31;5022041;28;1473;-60
2020/12/28 06:01:49;;;;;;;;;;;;;;;17.04;67.91;100094.78;5020845;28;1432;-60
2020/12/28 06:04:15;;;;;;;;;;;;;;;17.39;66.18;100101.41;5024532;28;1453;-58
2020/12/28 06:06:41;;;;;;;;;;;;;;;17.58;67.43;100110.41;5019157;28;1894;-60
2020/12/28 06:09:07;;;;;;;;;;;;;;;17.69;68.54;100110.25;5007695;28;1516;-63
2020/12/28 06:11:32;;;;;;;;;;;;;;;17.72;68.24;100115.31;5019615;28;1495;-62
2020/12/28 06:13:58;;;;;;;;;;;;;;;17.76;68.26;100121.22;5030668;28;1539;-63
2020/12/28 06:16:23;;;;;;;;;;;;;;;17.69;67.47;100107.59;5023602;28;1433;-62
2020/12/28 06:18:55;;;;;;;;;;;;;;;17.64;68.43;100118.69;5035660;28;1440;-62
2020/12/28 06:21:21;;;;;;;;;;;;;;;17.55;68.41;100124.91;5034991;28;1094;-62
2020/12/28 06:23:49;;;;;;;;;;;;;;;17.68;67.00;100140.66;5036331;28;2164;-61
2020/12/28 06:26:18;;;;;;;;;;;;;;;17.80;67.25;100147.53;5038745;28;1914;-60
2020/12/28 06:28:44;;;;;;;;;;;;;;;17.66;67.72;100151.47;5017565;28;2342;-62
2020/12/28 06:31:10;;;;;;;;;;;;;;;17.74;67.46;100153.44;5034596;28;1421;-60
2020/12/28 06:33:35;;;;;;;;;;;;;;;17.69;67.68;100159.22;5034011;28;1277;-58
2020/12/28 06:36:12;;;;;;;;;;;;;;;17.78;66.98;100154.84;5030405;28;1372;-58
2020/12/28 06:38:37;;;;;;;;;;;;;;;17.83;66.88;100154.44;5013481;28;1481;-62
2020/12/28 06:41:03;;;;;;;;;;;;;;;17.88;65.89;100165.56;5028222;28;1437;-64
2020/12/28 06:43:38;;;;;;;;;;;;;;;17.85;66.81;100145.31;5031960;28;1444;-60
2020/12/28 06:46:03;;;;;;;;;;;;;;;17.79;65.79;100135.16;5031891;28;2079;-60
2020/12/28 06:48:28;;;;;;;;;;;;;;;17.79;64.86;100135.16;5031326;28;1515;-60
2020/12/28 06:50:54;;;;;;;;;;;;;;;17.77;66.76;100141.63;5035652;28;1216;-60
2020/12/28 06:53:20;;;;;;;;;;;;;;;17.73;67.49;100151.78;5023297;28;1461;-59
2020/12/28 06:55:46;;;;;;;;;;;;;;;17.79;68.48;100150.38;5020295;28;1445;-67
2020/12/28 06:58:18;;;;;;;;;;;;;;;17.84;67.64;100145.44;5031998;28;1188;-60
2020/12/28 07:00:44;;;;;;;;;;;;;;;17.87;68.40;100175.44;5029522;28;1487;-58
2020/12/28 07:03:16;;;;;;;;;;;;;;;17.87;67.43;100161.22;5027728;28;1677;-60
2020/12/28 07:05:42;;;;;;;;;;;;;;;17.83;67.23;100160.66;5037572;28;2021;-61
2020/12/28 07:08:07;;;;;;;;;;;;;;;17.79;67.96;100166.41;5033343;28;1500;-60
2020/12/28 07:10:33;;;;;;;;;;;;;;;17.61;67.47;100168.94;5041015;28;1484;-61
2020/12/28 07:13:11;;;;;;;;;;;;;;;17.40;67.08;100172.59;5043553;28;1421;-62
2020/12/28 07:15:37;;;;;;;;;;;;;;;17.35;68.25;100182.88;5046835;28;1464;-62
2020/12/28 07:18:06;;;;;;;;;;;;;;;17.58;67.34;100194.13;5041918;28;1382;-60
2020/12/28 07:20:31;;;;;;;;;;;;;;;17.53;67.38;100182.16;5026854;28;1305;-62
2020/12/28 07:22:57;;;;;;;;;;;;;;;17.33;67.07;100186.63;5036752;28;2255;-62
2020/12/28 07:25:22;;;;;;;;;;;;;;;17.04;68.87;100198.97;5046622;28;1910;-61
2020/12/28 07:27:48;;;;;;;;;;;;;;;17.14;66.91;100214.19;5040220;28;1303;-60
2020/12/28 07:30:13;;;;;;;;;;;;;;;17.38;67.38;100193.25;5046188;28;1457;-59
2020/12/28 07:32:39;;;;;;;;;;;;;;;17.45;67.58;100201.59;5048152;28;1448;-62
2020/12/28 07:35:05;;;;;;;;;;;;;;;17.57;67.79;100194.28;5044010;28;1479;-59
2020/12/28 07:37:31;;;;;;;;;;;;;;;17.78;67.30;100186.09;5043386;28;1400;-60
2020/12/28 07:39:56;;;;;;;;;;;;;;;17.94;66.58;100183.72;5049399;28;1446;-61
2020/12/28 07:42:23;;;;;;;;;;;;;;;17.94;66.85;100198.94;5036589;28;1440;-61
2020/12/28 07:44:59;;;;;;;;;;;;;;;17.88;67.10;100198.50;5032420;28;1942;-59
2020/12/28 07:47:42;;;;;;;;;;;;;;;17.66;67.08;100201.44;5036113;28;1440;-59
2020/12/28 07:50:08;;;;;;;;;;;;;;;17.58;67.45;100212.00;5039002;28;1613;-60
2020/12/28 07:52:40;;;;;;;;;;;;;;;17.69;66.61;100190.47;5044312;28;1628;-59
2020/12/28 07:55:08;;;;;;;;;;;;;;;17.83;66.86;100190.06;5023403;28;1271;-59
2020/12/28 07:57:36;;;;;;;;;;;;;;;17.83;65.81;100195.44;5042580;28;1121;-61
2020/12/28 08:00:05;;;;;;;;;;;;;;;17.68;65.44;100211.00;5038531;28;1503;-62
2020/12/28 08:02:37;;;;;;;;;;;;;;;17.66;66.27;100226.34;5044795;28;1478;-60
2020/12/28 08:05:03;;;;;;;;;;;;;;;17.42;64.64;100212.53;5046143;28;1965;-59
2020/12/28 08:07:33;;;;;;;;;;;;;;;17.33;63.65;100218.72;5049223;28;1297;-58
2020/12/28 08:09:58;;;;;;;;;;;;;;;17.43;65.62;100225.78;5047614;28;1045;-63
2020/12/28 08:12:23;;;;;;;;;;;;;;;17.25;65.56;100244.31;5047382;28;1437;-58
2020/12/28 08:14:55;;;;;;;;;;;;;;;17.32;64.22;100241.91;5058130;28;1331;-58
2020/12/28 08:17:27;;;;;;;;;;;;;;;17.09;64.13;100244.81;5054818;28;1349;-58
2020/12/28 08:20:03;;;;;;;;;;;;;;;17.25;65.23;100236.28;5064596;28;1431;-59
2020/12/28 08:22:29;;;;;;;;;;;;;;;17.16;64.24;100236.25;5057256;28;1351;-59
2020/12/28 08:25:05;;;;;;;;;;;;;;;16.93;63.40;100232.94;5066695;28;1975;-59
2020/12/28 08:27:31;;;;;;;;;;;;;;;16.77;63.75;100236.06;5050071;28;1123;-59
2020/12/28 08:29:57;;;;;;;;;;;;;;;16.95;66.03;100237.19;5051616;28;1402;-58
2020/12/28 08:32:25;;;;;;;;;;;;;;;16.89;62.65;100219.88;5046170;28;1446;-59
2020/12/28 08:34:55;;;;;;;;;;;;;;;16.90;62.55;100205.53;5048850;28;1686;-59
2020/12/28 08:37:20;;;;;;;;;;;;;;;16.74;63.49;100215.00;5039833;28;1290;-59
2020/12/28 08:39:46;;;;;;;;;;;;;;;16.64;63.08;100226.47;5041314;28;1354;-60
2020/12/28 08:42:11;;;;;;;;;;;;;;;16.52;63.22;100224.88;5034729;28;1410;-58
2020/12/28 08:44:37;;;;;;;;;;;;;;;16.54;63.17;100206.06;5048306;28;1890;-59
2020/12/28 08:47:04;;;;;;;;;;;;;;;16.75;63.70;100200.66;5064848;28;1418;-59
2020/12/28 08:49:33;;;;;;;;;;;;;;;16.87;62.46;100196.94;5059645;28;1628;-60
2020/12/28 08:52:08;;;;;;;;;;;;;;;17.07;61.75;100193.34;5064235;28;1524;-58
2020/12/28 08:54:33;;;;;;;;;;;;;;;17.41;61.53;100206.34;5055793;28;1410;-58
2020/12/28 08:56:59;;;;;;;;;;;;;;;17.32;62.97;100212.53;5039873;28;1402;-60
2020/12/28 08:59:24;;;;;;;;;;;;;;;17.23;63.00;100181.28;5044814;28;1414;-60
2020/12/28 09:01:53;;;;;;;;;;;;;;;17.25;61.32;100196.22;5057980;28;1549;-59
2020/12/28 09:04:19;;;;;;;;;;;;;;;17.25;62.92;100195.38;5038385;28;1476;-59
2020/12/28 09:06:44;;;;;;;;;;;;;;;17.28;62.23;100209.28;5063939;28;1953;-58
2020/12/28 09:09:09;;;;;;;;;;;;;;;17.46;61.80;100209.44;5044854;28;1716;-59
2020/12/28 09:11:35;;;;;;;;;;;;;;;17.69;62.57;100203.84;5047533;28;1911;-59
2020/12/28 09:14:00;;;;;;;;;;;;;;;17.65;62.70;100205.13;5053547;28;1380;-59
2020/12/28 09:16:26;;;;;;;;;;;;;;;17.69;62.66;100188.63;5046371;28;1331;-60
2020/12/28 09:18:51;;;;;;;;;;;;;;;17.55;62.36;100190.88;5041848;28;1342;-58
2020/12/28 09:21:16;;;;;;;;;;;;;;;17.45;62.32;100201.59;5036277;28;11016;-58
2020/12/28 09:23:42;;;;;;;;;;;;;;;17.38;62.12;100206.63;5040035;28;1216;-58
2020/12/28 09:26:07;;;;;;;;;;;;;;;17.35;62.78;100172.19;5047382;28;1973;-58
2020/12/28 09:28:33;;;;;;;;;;;;;;;17.27;61.18;100182.72;5047370;28;1293;-58
2020/12/28 09:30:58;;;;;;;;;;;;;;;17.17;61.11;100184.50;5049896;28;1269;-60
2020/12/28 09:33:23;;;;;;;;;;;;;;;17.04;63.13;100190.09;5049646;28;1172;-58
2020/12/28 09:35:49;;;;;;;;;;;;;;;16.90;61.49;100180.66;5049542;28;1251;-58
2020/12/28 09:38:14;;;;;;;;;;;;;;;16.96;63.00;100188.13;5050480;28;1273;-59
2020/12/28 09:40:40;;;;;;;;;;;;;;;17.09;63.06;100186.06;5043439;28;1350;-58
2020/12/28 09:43:05;;;;;;;;;;;;;;;17.08;62.45;100178.16;5051312;28;1612;-58
2020/12/28 09:45:36;;;;;;;;;;;;;;;17.09;61.66;100195.91;5041352;28;1894;-59
2020/12/28 09:48:02;;;;;;;;;;;;;;;16.86;61.76;100197.94;5051896;28;1139;-58
2020/12/28 09:50:28;;;;;;;;;;;;;;;16.93;63.55;100191.06;5050368;28;1307;-58
2020/12/28 09:52:53;;;;;;;;;;;;;;;17.07;62.32;100185.34;5045547;28;1514;-58
2020/12/28 09:55:18;;;;;;;;;;;;;;;17.13;61.98;100175.94;5035755;28;1244;-58
2020/12/28 09:57:44;;;;;;;;;;;;;;;17.01;63.41;100183.22;5029822;28;1580;-65
2020/12/28 10:00:09;;;;;;;;;;;;;;;16.99;61.88;100190.53;5035382;28;1050;-58
2020/12/28 10:02:35;;;;;;;;;;;;;;;17.32;63.12;100180.47;5041833;28;1444;-58
2020/12/28 10:05:00;;;;;;;;;;;;;;;17.85;60.98;100177.41;5038879;28;1885;-57
2020/12/28 10:07:26;;;;;;;;;;;;;;;18.08;60.77;100174.41;5044431;28;1476;-56
2020/12/28 10:09:51;;;;;;;;;;;;;;;18.18;59.68;100156.50;5037741;28;1316;-57
2020/12/28 10:12:17;;;;;;;;;;;;;;;18.21;58.75;100156.22;5040007;28;1554;-55
2020/12/28 10:14:42;;;;;;;;;;;;;;;18.21;57.82;100161.56;5039766;28;1382;-54
2020/12/28 10:17:07;;;;;;;;;;;;;;;18.22;57.26;100151.69;5039051;28;1566;-55
2020/12/28 10:19:33;;;;;;;;;;;;;;;18.22;60.22;100130.28;5042996;28;1314;-57
2020/12/28 10:21:59;;;;;;;;;;;;;;;18.22;59.96;100136.50;5048806;28;1210;-57
2020/12/28 10:24:24;;;;;;;;;;;;;;;18.27;58.86;100126.19;5046828;28;1218;-57
2020/12/28 10:26:51;;;;;;;;;;;;;;;17.97;59.32;100118.41;5041486;28;1914;-56
2020/12/28 10:29:16;;;;;;;;;;;;;;;17.83;59.77;100131.22;5061579;28;1117;-54
2020/12/28 10:31:41;;;;;;;;;;;;;;;18.12;60.57;100130.31;5054339;28;1393;-54
2020/12/28 10:34:07;;;;;;;;;;;;;;;18.24;60.35;100118.47;5041821;28;1110;-56
2020/12/28 10:36:32;;;;;;;;;;;;;;;18.23;61.21;100116.75;5034894;28;1008;-56
2020/12/28 10:38:58;;;;;;;;;;;;;;;18.27;59.79;100107.44;5032309;28;1247;-56
2020/12/28 10:41:32;;;;;;;;;;;;;;;18.28;59.96;100101.13;5049815;28;1096;-54
2020/12/28 10:43:58;;;;;;;;;;;;;;;18.23;60.04;100106.06;5051466;28;1260;-57
2020/12/28 10:46:24;;;;;;;;;;;;;;;18.25;62.13;100114.78;5043197;28;1889;-56
2020/12/28 10:48:49;;;;;;;;;;;;;;;18.37;62.50;100110.09;5038602;28;1363;-58
2020/12/28 10:51:15;;;;;;;;;;;;;;;18.51;64.47;100105.25;5038393;28;1289;-54
2020/12/28 10:53:40;;;;;;;;;;;;;;;18.67;63.11;100087.53;5037527;28;1224;-57
2020/12/28 10:56:07;;;;;;;;;;;;;;;18.65;64.04;100088.69;5044591;28;1231;-58
2020/12/28 10:58:33;;;;;;;;;;;;;;;18.60;63.95;100088.28;5045267;28;1271;-59
2020/12/28 11:00:58;;;;;;;;;;;;;;;18.54;64.28;100103.09;5043581;28;1432;-58
2020/12/28 11:03:23;;;;;;;;;;;;;;;18.50;64.13;100096.34;5040359;28;1132;-58
2020/12/28 11:05:49;;;;;;;;;;;;;;;18.49;64.25;100086.66;5046406;28;1901;-58
2020/12/28 11:08:14;;;;;;;;;;;;;;;18.48;64.06;100087.63;5047095;28;1168;-56
2020/12/28 11:10:40;;;;;;;;;;;;;;;18.49;64.49;100090.16;5053069;28;1050;-58
2020/12/28 11:13:06;;;;;;;;;;;;;;;18.44;64.13;100075.53;5051499;28;1275;-55
2020/12/28 11:15:31;;;;;;;;;;;;;;;18.42;64.24;100072.16;5051725;28;1097;-55
2020/12/28 11:17:56;;;;;;;;;;;;;;;18.42;64.06;100072.16;5033486;28;1168;-58
2020/12/28 11:20:22;;;;;;;;;;;;;;;18.43;64.19;100068.50;5036301;28;1185;-58
2020/12/28 11:22:48;;;;;;;;;;;;;;;18.49;64.28;100051.84;5041433;28;1219;-58
2020/12/28 11:25:14;;;;;;;;;;;;;;;18.51;63.92;100044.50;5048910;28;1914;-58
2020/12/28 11:27:39;;;;;;;;;;;;;;;18.51;64.47;100059.75;5055297;28;1164;-55
2020/12/28 11:30:05;;;;;;;;;;;;;;;18.47;64.64;100056.50;5051597;28;1308;-55
2020/12/28 11:32:30;;;;;;;;;;;;;;;18.40;64.56;100042.03;5052521;28;1257;-56
2020/12/28 11:34:55;;;;;;;;;;;;;;;18.36;64.66;100024.56;5050037;28;1158;-58
2020/12/28 11:37:27;;;;;;;;;;;;;;;18.39;64.27;100025.13;5053326;28;1366;-55
2020/12/28 11:39:53;;;;;;;;;;;;;;;18.42;64.67;100029.34;5047426;28;1053;-58
2020/12/28 11:42:18;;;;;;;;;;;;;;;18.38;63.98;100020.78;5047320;28;1233;-58
2020/12/28 11:44:44;;;;;;;;;;;;;;;18.40;63.69;100007.22;5040462;28;1914;-55
2020/12/28 11:47:10;;;;;;;;;;;;;;;18.42;64.23;100018.63;5040902;28;1034;-58
2020/12/28 11:49:36;;;;;;;;;;;;;;;18.46;63.93;99994.09;5047548;28;1025;-58
2020/12/28 11:52:01;;;;;;;;;;;;;;;18.44;64.10;100014.81;5040245;28;1045;-58
2020/12/28 11:54:26;;;;;;;;;;;;;;;18.45;64.44;100002.28;5040609;28;1247;-58
2020/12/28 11:56:52;;;;;;;;;;;;;;;18.46;63.80;100006.63;5037990;28;1219;-58
2020/12/28 11:59:17;;;;;;;;;;;;;;;18.49;63.59;99987.59;5048080;28;1180;-55
2020/12/28 12:01:46;;;;;;;;;;;;;;;18.53;63.15;99982.78;5042428;28;1533;-55
2020/12/28 12:04:12;;;;;;;;;;;;;;;18.51;63.43;99974.91;5035613;28;1168;-55
2020/12/28 12:06:37;;;;;;;;;;;;;;;18.53;63.27;99974.75;5038346;28;1898;-59
2020/12/28 12:09:15;;;;;;;;;;;;;;;18.62;63.34;99976.50;5047564;28;1148;-58
2020/12/28 12:11:41;;;;;;;;;;;;;;;18.65;62.78;99966.31;5046181;28;1252;-55
2020/12/28 12:14:07;;;;;;;;;;;;;;;18.67;62.99;99966.19;5047259;28;1107;-55
2020/12/28 12:16:32;;;;;;;;;;;;;;;18.70;62.68;99973.91;5048111;28;1690;-55
2020/12/28 12:18:57;;;;;;;;;;;;;;;18.68;63.13;99968.72;5051014;28;1312;-55
2020/12/28 12:21:23;;;;;;;;;;;;;;;18.71;63.37;99974.75;5049529;28;1702;-58
2020/12/28 12:23:48;;;;;;;;;;;;;;;18.64;63.23;99967.34;5041068;28;1157;-59
2020/12/28 12:26:17;;;;;;;;;;;;;;;18.67;62.59;99984.94;5039752;28;1918;-58
2020/12/28 12:28:42;;;;;;;;;;;;;;;18.64;63.17;99970.00;5046888;28;1160;-58
2020/12/28 12:31:07;;;;;;;;;;;;;;;18.66;63.14;99989.44;5041173;28;1335;-58
2020/12/28 12:33:33;;;;;;;;;;;;;;;18.64;62.77;99994.13;5032168;28;1145;-58
2020/12/28 12:35:59;;;;;;;;;;;;;;;18.67;62.93;99991.13;5038600;28;1160;-58
2020/12/28 12:38:24;;;;;;;;;;;;;;;18.67;62.71;99982.25;5051321;28;1077;-58
2020/12/28 12:40:50;;;;;;;;;;;;;;;18.66;62.57;99989.44;5051216;28;1093;-58
2020/12/28 12:43:15;;;;;;;;;;;;;;;18.70;62.19;99979.25;5049089;28;1176;-56
2020/12/28 12:45:40;;;;;;;;;;;;;;;18.65;62.90;99998.47;5037743;28;1964;-55